createdAt,value
2023-04-18T00:14:10.425Z,101002.34
2023-04-18T00:24:14.285Z,100999.63
2023-04-18T00:34:19.517Z,101010.88
2023-04-18T00:44:23.312Z,101004.69
2023-04-18T00:54:28.801Z,100995.69
2023-04-18T01:04:35.631Z,100986.34
2023-04-18T01:14:44.135Z,101000.59
2023-04-18T01:24:49.528Z,100992.72
2023-04-18T01:34:53.277Z,100973.50
2023-04-18T01:44:58.687Z,100979.19
2023-04-18T01:55:03.810Z,100979.78
2023-04-18T02:05:10.287Z,100976.09
2023-04-18T02:15:13.992Z,100967.19
2023-04-18T02:25:19.566Z,100975.69
2023-04-18T02:35:24.102Z,100976.66
2023-04-18T02:45:29.231Z,100971.44
2023-04-18T02:55:33.108Z,100964.28
2023-04-18T03:05:39.567Z,100974.94
2023-04-18T03:15:43.232Z,100984.63
2023-04-18T03:25:48.415Z,100976.84
2023-04-18T03:35:52.250Z,100985.81
2023-04-18T03:46:00.913Z,100987.78
2023-04-18T03:56:04.843Z,100996.50
2023-04-18T04:06:10.144Z,100999.75
2023-04-18T04:16:14.084Z,101007.22
2023-04-18T04:26:19.296Z,101004.13
2023-04-18T04:36:27.161Z,101012.59
2023-04-18T04:46:33.821Z,101015.94
2023-04-18T04:56:37.655Z,101016.56
2023-04-18T05:06:42.767Z,101017.53
2023-04-18T05:16:46.691Z,101026.72
2023-04-18T05:26:52.031Z,101029.31
2023-04-18T05:36:55.897Z,101030.81
2023-04-18T05:47:01.206Z,101035.34
2023-04-18T05:57:05.007Z,101037.69
2023-04-18T06:07:10.650Z,101045.78
2023-04-18T06:17:14.379Z,101064.66
2023-04-18T06:27:30.456Z,101064.09
2023-04-18T06:37:35.021Z,101070.75
2023-04-18T06:47:41.630Z,101088.28
2023-04-18T06:57:45.552Z,101088.34
2023-04-18T07:07:50.719Z,101083.66
2023-04-18T07:17:54.505Z,101083.84
2023-04-18T07:27:59.716Z,101085.59
2023-04-18T07:38:03.472Z,101081.00
2023-04-18T07:48:08.761Z,101072.22
2023-04-18T07:58:12.547Z,101062.69
2023-04-18T08:08:18.464Z,101065.97
2023-04-18T08:18:23.042Z,101078.56
2023-04-18T08:28:28.329Z,101072.78
2023-04-18T08:38:32.162Z,101064.72
2023-04-18T08:48:37.951Z,101073.06
2023-04-18T08:58:41.612Z,101063.00
2023-04-18T09:08:58.817Z,101058.91
2023-04-18T09:19:18.412Z,101053.94
2023-04-18T09:29:43.454Z,101038.94
2023-04-18T09:39:47.523Z,101040.56
2023-04-18T09:49:53.610Z,101036.78
2023-04-18T10:00:08.674Z,101031.41
2023-04-18T10:10:14.276Z,101012.09
2023-04-18T10:20:21.198Z,101001.00
2023-04-18T10:31:08.074Z,101011.44
2023-04-18T10:41:21.253Z,100991.50
2023-04-18T10:51:26.495Z,100996.72
2023-04-18T11:01:33.135Z,100980.78
2023-04-18T11:11:38.304Z,100972.59
2023-04-18T11:21:41.915Z,100965.28
2023-04-18T11:31:55.281Z,100955.31
2023-04-18T11:42:01.774Z,100948.16
2023-04-18T11:52:13.903Z,100945.69
2023-04-18T12:02:17.942Z,100956.78
2023-04-18T12:12:23.666Z,100950.41
2023-04-18T12:22:50.432Z,100939.47
2023-04-18T12:32:57.847Z,100942.63
2023-04-18T12:43:03.371Z,100944.47
2023-04-18T12:53:08.960Z,100954.59
2023-04-18T13:03:13.558Z,100958.91
2023-04-18T13:13:19.050Z,100967.97
2023-04-18T13:23:22.791Z,100972.69
2023-04-18T13:33:28.055Z,100965.66
2023-04-18T13:43:32.015Z,100968.22
2023-04-18T13:53:37.162Z,100965.56
2023-04-18T14:03:43.575Z,100963.66
2023-04-18T14:13:48.941Z,100962.19
2023-04-18T14:23:54.175Z,100959.44
2023-04-18T14:33:59.209Z,100955.13
2023-04-18T14:44:03.915Z,100964.56
2023-04-18T14:54:09.085Z,100946.88
2023-04-18T15:04:15.088Z,100961.09
2023-04-18T15:14:20.927Z,100962.72
2023-04-18T15:24:25.316Z,100963.69
2023-04-18T15:34:30.460Z,100967.34
2023-04-18T15:44:34.177Z,100967.09
2023-04-18T15:54:42.796Z,100980.66
2023-04-18T16:04:46.702Z,100984.56
2023-04-18T16:14:51.856Z,100981.00
2023-04-18T16:24:55.669Z,100990.56
2023-04-18T16:35:00.890Z,101001.66
2023-04-18T16:45:05.690Z,101003.50
2023-04-18T16:55:11.137Z,101013.31
2023-04-18T17:05:15.152Z,101022.44
2023-04-18T17:15:21.111Z,101043.47
2023-04-18T17:25:24.820Z,101036.00
2023-04-18T17:35:30.015Z,101057.66
2023-04-18T17:45:33.780Z,101064.88
2023-04-18T17:55:40.999Z,101075.38
2023-04-18T18:05:47.685Z,101082.50
2023-04-18T18:15:52.685Z,101101.19
2023-04-18T18:25:56.370Z,101100.25
2023-04-18T18:36:04.090Z,101114.75
2023-04-18T18:46:08.404Z,101122.56
2023-04-18T18:56:14.590Z,101140.00
2023-04-18T19:06:18.678Z,101140.97
2023-04-18T19:16:24.089Z,101147.94
2023-04-18T19:26:28.156Z,101143.16
2023-04-18T19:36:36.581Z,101142.88
2023-04-18T19:46:40.721Z,101151.41
2023-04-18T19:56:45.796Z,101147.09
2023-04-18T20:06:49.985Z,101151.66
2023-04-18T20:16:55.984Z,101149.03
2023-04-18T20:27:00.779Z,101159.63
2023-04-18T20:37:07.450Z,101156.00
2023-04-18T20:47:12.421Z,101156.19
2023-04-18T20:57:20.578Z,101167.38
2023-04-18T21:07:25.068Z,101162.59
2023-04-18T21:17:30.782Z,101173.97
2023-04-18T21:27:34.867Z,101170.69
2023-04-18T21:37:40.702Z,101165.47
2023-04-18T21:47:45.406Z,101164.66
2023-04-18T21:57:51.250Z,101164.94
2023-04-18T22:07:58.471Z,101163.94
2023-04-18T22:18:05.444Z,101155.88
2023-04-18T22:28:09.338Z,101158.47
2023-04-18T22:38:14.553Z,101154.78
2023-04-18T22:48:18.252Z,101153.56
2023-04-18T22:58:23.274Z,101163.78
2023-04-18T23:08:26.911Z,101159.09
2023-04-18T23:18:32.247Z,101159.72
2023-04-18T23:28:35.929Z,101172.72
2023-04-18T23:38:41.303Z,101173.31
2023-04-18T23:48:45.065Z,101172.50
2023-04-18T23:58:51.660Z,101168.75
